createdAt,value
2022-09-23T00:00:25.077Z,20.90
2022-09-23T00:01:27.820Z,22.02
2022-09-23T00:02:30.388Z,26.75
2022-09-23T00:03:32.864Z,24.41
2022-09-23T00:04:35.451Z,25.11
2022-09-23T00:05:38.017Z,24.85
2022-09-23T00:06:40.577Z,22.94
2022-09-23T00:07:42.842Z,27.62
2022-09-23T00:08:45.325Z,26.83
2022-09-23T00:09:47.806Z,24.78
2022-09-23T00:10:50.243Z,23.27
2022-09-23T00:11:52.494Z,22.29
2022-09-23T00:12:55.062Z,29.50
2022-09-23T00:13:57.260Z,26.13
2022-09-23T00:14:59.689Z,26.07
2022-09-23T00:16:01.927Z,25.37
2022-09-23T00:17:04.321Z,21.73
2022-09-23T00:18:06.585Z,21.85
2022-09-23T00:19:08.812Z,24.82
2022-09-23T00:20:11.043Z,27.45
2022-09-23T00:21:13.372Z,22.61
2022-09-23T00:22:15.778Z,23.78
2022-09-23T00:23:17.982Z,23.92
2022-09-23T00:24:20.240Z,24.79
2022-09-23T00:25:22.458Z,27.44
2022-09-23T00:26:24.920Z,30.45
2022-09-23T00:27:27.520Z,26.07
2022-09-23T00:28:30.051Z,28.86
2022-09-23T00:29:32.489Z,26.21
2022-09-23T00:30:44.138Z,28.45
2022-09-23T00:31:46.920Z,22.22
2022-09-23T00:32:49.893Z,27.80
2022-09-23T00:33:52.771Z,26.85
2022-09-23T00:34:55.763Z,26.27
2022-09-23T00:35:58.726Z,33.22
2022-09-23T00:37:02.015Z,30.96
2022-09-23T00:38:04.790Z,30.39
2022-09-23T00:39:07.691Z,30.77
2022-09-23T00:40:10.602Z,36.47
2022-09-23T00:41:13.406Z,35.03
2022-09-23T00:42:16.493Z,36.55
2022-09-23T00:43:19.358Z,32.20
2022-09-23T00:44:22.243Z,31.16
2022-09-23T00:45:25.210Z,32.38
2022-09-23T00:46:28.575Z,33.23
2022-09-23T00:47:31.488Z,32.36
2022-09-23T00:48:34.248Z,32.16
2022-09-23T00:49:37.131Z,33.87
2022-09-23T00:50:39.996Z,32.45
2022-09-23T00:51:43.595Z,36.88
2022-09-23T00:52:46.767Z,37.54
2022-09-23T00:53:49.743Z,31.45
2022-09-23T00:54:52.720Z,31.35
2022-09-23T00:55:55.513Z,34.12
2022-09-23T00:56:58.574Z,32.55
2022-09-23T00:58:01.241Z,30.74
2022-09-23T00:59:04.019Z,33.74
2022-09-23T01:00:07.010Z,35.62
2022-09-23T01:01:09.760Z,32.97
2022-09-23T01:02:12.774Z,35.24
2022-09-23T01:03:15.723Z,32.94
2022-09-23T01:04:18.696Z,32.04
2022-09-23T01:05:21.568Z,31.89
2022-09-23T01:06:24.749Z,30.14
2022-09-23T01:07:27.526Z,31.15
2022-09-23T01:08:30.302Z,32.62
2022-09-23T01:09:33.375Z,28.13
2022-09-23T01:10:36.360Z,30.02
2022-09-23T01:11:39.121Z,32.99
2022-09-23T01:12:41.996Z,34.70
2022-09-23T01:13:44.972Z,38.68
2022-09-23T01:14:48.894Z,26.78
2022-09-23T01:15:51.541Z,36.43
2022-09-23T01:16:54.430Z,36.48
2022-09-23T01:17:57.608Z,38.13
2022-09-23T01:19:00.376Z,35.63
2022-09-23T01:20:03.042Z,38.34
2022-09-23T01:21:05.816Z,36.29
2022-09-23T01:22:08.689Z,40.29
2022-09-23T01:23:11.770Z,41.51
2022-09-23T01:24:14.542Z,38.40
2022-09-23T01:25:17.223Z,43.77
2022-09-23T01:26:19.787Z,39.32
2022-09-23T01:27:22.343Z,35.85
2022-09-23T01:28:25.125Z,35.47
2022-09-23T01:29:28.119Z,34.81
2022-09-23T01:30:31.203Z,37.73
2022-09-23T01:31:35.588Z,40.87
2022-09-23T01:32:38.670Z,40.03
2022-09-23T01:33:41.352Z,37.69
2022-09-23T01:34:44.101Z,40.28
2022-09-23T01:35:46.774Z,25.86
2022-09-23T01:36:49.675Z,18.17
2022-09-23T01:37:52.431Z,15.34
2022-09-23T01:38:55.549Z,16.57
2022-09-23T01:39:58.186Z,19.59
2022-09-23T01:41:00.941Z,17.30
2022-09-23T01:42:03.824Z,15.99
2022-09-23T01:43:06.504Z,18.96
2022-09-23T01:44:09.371Z,16.30
2022-09-23T01:45:12.239Z,16.97
2022-09-23T01:46:14.910Z,18.48
2022-09-23T01:47:17.687Z,17.36
2022-09-23T01:48:20.392Z,17.78
2022-09-23T01:49:23.127Z,17.04
2022-09-23T01:50:26.206Z,15.61
2022-09-23T01:51:29.186Z,18.72
2022-09-23T01:52:31.865Z,18.27
2022-09-23T01:53:34.936Z,17.08
2022-09-23T01:54:37.493Z,17.40
2022-09-23T01:55:40.498Z,20.05
2022-09-23T01:56:43.041Z,19.53
2022-09-23T01:57:46.023Z,16.58
2022-09-23T01:58:49.005Z,17.93
2022-09-23T01:59:51.770Z,19.58
2022-09-23T02:00:54.705Z,19.13
2022-09-23T02:01:57.450Z,17.13
2022-09-23T02:03:00.090Z,22.85
2022-09-23T02:04:02.650Z,22.07
2022-09-23T02:05:05.316Z,18.85
2022-09-23T02:06:08.106Z,20.75
2022-09-23T02:07:10.798Z,20.42
2022-09-23T02:08:13.635Z,19.84
2022-09-23T02:09:16.512Z,21.98
2022-09-23T02:10:19.282Z,23.67
2022-09-23T02:11:22.266Z,24.57
2022-09-23T02:12:25.026Z,25.91
2022-09-23T02:13:27.910Z,23.52
2022-09-23T02:14:30.780Z,26.36
2022-09-23T02:15:33.445Z,26.92
2022-09-23T02:16:36.424Z,23.24
2022-09-23T02:17:39.200Z,25.50
2022-09-23T02:18:41.867Z,25.71
2022-09-23T02:19:44.539Z,24.82
2022-09-23T02:20:47.340Z,27.03
2022-09-23T02:21:49.982Z,30.08
2022-09-23T02:22:52.552Z,28.05
2022-09-23T02:23:55.116Z,23.63
2022-09-23T02:24:58.110Z,29.02
2022-09-23T02:26:00.862Z,28.63
2022-09-23T02:27:03.541Z,26.34
2022-09-23T02:28:06.104Z,28.66
2022-09-23T02:29:08.876Z,24.28
2022-09-23T02:30:11.755Z,27.88
2022-09-23T02:31:14.960Z,27.23
2022-09-23T02:32:17.824Z,26.96
2022-09-23T02:33:20.789Z,27.92
2022-09-23T02:34:23.861Z,27.28
2022-09-23T02:35:26.851Z,26.25
2022-09-23T02:36:29.617Z,23.72
2022-09-23T02:37:32.385Z,29.22
2022-09-23T02:38:35.156Z,27.98
2022-09-23T02:39:37.727Z,31.75
2022-09-23T02:40:40.670Z,23.45
2022-09-23T02:41:43.883Z,22.83
2022-09-23T02:42:46.854Z,21.01
2022-09-23T02:43:49.893Z,21.46
2022-09-23T02:46:11.702Z,23.69
2022-09-23T02:47:14.745Z,20.36
2022-09-23T02:48:17.610Z,23.89
2022-09-23T02:49:20.709Z,22.30
2022-09-23T02:50:23.577Z,25.22
2022-09-23T02:51:26.442Z,24.39
2022-09-23T02:52:29.527Z,20.39
2022-09-23T02:53:32.495Z,24.16
2022-09-23T02:54:35.377Z,23.75
2022-09-23T02:55:38.042Z,22.32
2022-09-23T02:56:40.922Z,20.57
2022-09-23T02:57:44.107Z,23.33
2022-09-23T02:58:47.080Z,25.01
2022-09-23T02:59:50.167Z,28.11
2022-09-23T03:00:53.103Z,22.68
2022-09-23T03:01:55.850Z,23.16
2022-09-23T03:02:58.589Z,20.15
2022-09-23T03:04:01.165Z,20.43
2022-09-23T03:05:03.823Z,26.29
2022-09-23T03:28:07.774Z,22.57
2022-09-23T03:32:18.450Z,23.18
2022-09-23T03:33:23.876Z,22.17
2022-09-23T03:34:25.848Z,23.39
2022-09-23T03:35:28.609Z,25.31
2022-09-23T03:36:31.905Z,19.51
2022-09-23T03:37:34.668Z,23.62
2022-09-23T03:38:37.667Z,22.84
2022-09-23T03:41:46.284Z,21.07
2022-09-23T03:44:54.392Z,17.49
2022-09-23T03:45:57.507Z,19.03
2022-09-23T03:48:03.116Z,15.88
2022-09-23T03:49:05.990Z,22.98
2022-09-23T03:50:08.760Z,17.44
2022-09-23T03:51:11.631Z,21.65
2022-09-23T03:52:14.399Z,20.01
2022-09-23T03:53:17.590Z,21.55
2022-09-23T03:54:20.567Z,21.72
2022-09-23T03:55:23.755Z,19.24
2022-09-23T03:56:26.617Z,23.12
2022-09-23T03:57:29.295Z,19.94
2022-09-23T03:58:32.060Z,25.22
2022-09-23T03:59:34.833Z,18.65
2022-09-23T04:00:37.979Z,18.51
2022-09-23T04:01:40.623Z,17.36
2022-09-23T04:02:43.561Z,18.32
2022-09-23T04:03:46.533Z,18.75
2022-09-23T04:04:49.107Z,17.56
2022-09-23T04:05:51.771Z,19.75
2022-09-23T04:06:54.865Z,23.17
2022-09-23T04:07:58.964Z,22.16
2022-09-23T04:09:01.726Z,21.49
2022-09-23T04:19:29.346Z,24.49
2022-09-23T04:23:40.541Z,19.97
2022-09-23T05:50:38.208Z,26.42
2022-09-23T05:51:41.195Z,24.28
2022-09-23T05:54:53.401Z,25.63
2022-09-23T05:55:56.328Z,24.67
2022-09-23T05:57:02.682Z,26.02
2022-09-23T05:58:03.976Z,25.21
2022-09-23T05:59:06.882Z,26.97
2022-09-23T06:00:10.020Z,25.71
2022-09-23T06:01:12.993Z,21.99
2022-09-23T06:03:19.318Z,29.62
2022-09-23T06:04:23.111Z,28.82
2022-09-23T06:05:25.886Z,30.81
2022-09-23T06:06:29.822Z,26.92
2022-09-23T06:07:39.548Z,26.90
2022-09-23T06:08:42.959Z,31.23
2022-09-23T06:09:46.242Z,33.39
2022-09-23T06:10:53.555Z,26.97
2022-09-23T06:11:58.134Z,24.99
2022-09-23T06:13:00.893Z,28.67
2022-09-23T06:14:05.451Z,30.46
2022-09-23T06:15:08.189Z,28.22
2022-09-23T06:16:10.991Z,29.04
2022-09-23T06:17:20.733Z,26.25
2022-09-23T06:18:23.810Z,31.27
2022-09-23T06:19:27.053Z,28.51
2022-09-23T06:20:29.933Z,28.79
2022-09-23T06:21:38.582Z,28.35
2022-09-23T06:22:41.717Z,30.94
2022-09-23T06:23:44.804Z,28.19
2022-09-23T06:24:48.178Z,29.12
2022-09-23T06:25:51.785Z,29.43
2022-09-23T06:26:54.998Z,33.18
2022-09-23T06:27:57.532Z,35.67
2022-09-23T06:29:00.232Z,29.52
2022-09-23T06:30:03.288Z,30.92
2022-09-23T06:31:10.853Z,29.90
2022-09-23T06:32:14.604Z,29.52
2022-09-23T06:33:26.676Z,30.38
2022-09-23T06:34:25.525Z,29.94
2022-09-23T06:35:30.131Z,24.98
2022-09-23T06:36:41.955Z,28.15
2022-09-23T06:37:40.315Z,30.81
2022-09-23T06:38:43.882Z,32.33
2022-09-23T06:39:46.993Z,35.19
2022-09-23T06:40:49.775Z,29.20
2022-09-23T06:41:55.392Z,31.77
2022-09-23T06:42:58.084Z,30.37
2022-09-23T06:44:01.280Z,30.82
2022-09-23T06:45:08.258Z,31.15
2022-09-23T06:46:11.135Z,32.68
2022-09-23T06:47:16.820Z,31.12
2022-09-23T06:48:19.992Z,29.97
2022-09-23T06:49:24.658Z,32.96
2022-09-23T06:50:31.097Z,34.94
2022-09-23T06:51:36.504Z,31.35
2022-09-23T06:52:39.297Z,31.30
2022-09-23T06:53:42.282Z,33.47
2022-09-23T06:54:47.486Z,32.55
2022-09-23T06:55:50.769Z,35.73
2022-09-23T06:56:54.270Z,34.28
2022-09-23T06:58:08.806Z,30.38
2022-09-23T06:59:14.658Z,31.20
2022-09-23T07:00:17.827Z,29.79
2022-09-23T07:01:20.986Z,29.59
2022-09-23T07:02:24.038Z,26.68
2022-09-23T07:03:27.518Z,28.41
2022-09-23T07:04:33.784Z,31.85
2022-09-23T07:05:36.920Z,31.41
2022-09-23T07:08:00.897Z,31.70
2022-09-23T07:09:03.885Z,28.50
2022-09-23T07:10:08.603Z,30.27
2022-09-23T07:11:11.591Z,24.97
2022-09-23T07:12:14.741Z,28.55
2022-09-23T07:13:21.988Z,27.25
2022-09-23T07:14:25.210Z,28.34
2022-09-23T07:15:28.084Z,28.75
2022-09-23T07:16:30.907Z,25.38
2022-09-23T07:17:34.146Z,27.33
2022-09-23T07:18:37.313Z,30.32
2022-09-23T07:19:41.121Z,30.44
2022-09-23T07:20:44.304Z,29.06
2022-09-23T07:21:47.072Z,31.06
2022-09-23T07:22:50.042Z,30.05
2022-09-23T07:23:56.424Z,29.55
2022-09-23T07:24:59.410Z,28.69
2022-09-23T07:26:02.417Z,34.16
2022-09-23T07:27:05.534Z,25.94
2022-09-23T07:28:09.140Z,28.88
2022-09-23T07:29:12.512Z,34.36
2022-09-23T07:30:25.448Z,34.55
2022-09-23T07:31:38.527Z,35.42
2022-09-23T07:32:43.669Z,33.69
2022-09-23T07:33:35.875Z,30.98
2022-09-23T07:34:39.088Z,36.20
2022-09-23T07:35:42.053Z,29.02
2022-09-23T07:36:44.828Z,31.58
2022-09-23T07:37:47.596Z,27.34
2022-09-23T07:38:50.570Z,35.01
2022-09-23T07:39:53.866Z,32.55
2022-09-23T07:41:02.651Z,30.96
2022-09-23T07:42:17.539Z,31.66
2022-09-23T07:43:20.715Z,33.65
2022-09-23T07:44:24.413Z,35.82
2022-09-23T07:45:27.106Z,31.99
2022-09-23T07:46:29.866Z,32.58
2022-09-23T07:47:34.772Z,26.93
2022-09-23T07:48:38.066Z,34.11
2022-09-23T07:49:41.046Z,35.75
2022-09-23T07:50:49.529Z,32.22
2022-09-23T07:51:55.174Z,34.57
2022-09-23T07:52:57.884Z,31.77
2022-09-23T07:54:00.823Z,30.72
2022-09-23T07:55:04.124Z,33.42
2022-09-23T07:56:07.020Z,33.75
2022-09-23T07:57:14.084Z,33.67
2022-09-23T07:58:18.057Z,30.55
2022-09-23T07:59:21.251Z,26.45
2022-09-23T08:00:24.726Z,29.05
2022-09-23T08:01:29.735Z,29.55
2022-09-23T08:02:33.423Z,30.45
2022-09-23T08:03:36.120Z,33.56
2022-09-23T08:04:39.509Z,35.47
2022-09-23T08:05:45.476Z,34.19
2022-09-23T08:06:48.436Z,30.10
2022-09-23T08:07:51.196Z,29.70
2022-09-23T08:08:54.071Z,30.30
2022-09-23T08:09:57.669Z,37.28
2022-09-23T08:11:00.432Z,34.17
2022-09-23T08:12:03.425Z,32.58
2022-09-23T08:13:06.924Z,30.48
2022-09-23T08:14:09.685Z,36.03
2022-09-23T08:15:12.559Z,34.46
2022-09-23T08:16:15.750Z,29.44
2022-09-23T08:17:18.699Z,29.03
2022-09-23T08:19:38.079Z,32.12
2022-09-23T08:20:43.679Z,33.04
2022-09-23T08:24:12.412Z,34.25
2022-09-23T08:25:15.551Z,31.58
2022-09-23T08:26:22.433Z,33.81
2022-09-23T08:27:26.178Z,33.16
2022-09-23T08:28:30.768Z,31.54
2022-09-23T08:29:33.992Z,29.96
2022-09-23T08:30:46.898Z,30.01
2022-09-23T08:31:50.465Z,33.74
2022-09-23T08:32:53.283Z,30.91
2022-09-23T08:33:56.112Z,27.76
2022-09-23T08:34:59.395Z,31.08
2022-09-23T08:36:14.857Z,30.36
2022-09-23T08:37:21.239Z,28.48
2022-09-23T08:38:27.361Z,25.81
2022-09-23T08:40:47.725Z,30.80
2022-09-23T08:41:52.919Z,29.86
2022-09-23T08:42:55.158Z,28.70
2022-09-23T08:43:58.017Z,27.40
2022-09-23T08:45:01.033Z,28.73
2022-09-23T08:46:03.830Z,27.38
2022-09-23T08:48:22.840Z,28.11
2022-09-23T08:49:25.701Z,29.87
2022-09-23T08:50:30.431Z,26.74
2022-09-23T08:55:25.869Z,24.50
2022-09-23T08:56:29.959Z,22.71
2022-09-23T08:57:34.920Z,24.72
2022-09-23T08:58:37.449Z,25.90
2022-09-23T08:59:40.220Z,25.19
2022-09-23T09:04:32.173Z,24.75
2022-09-23T09:06:52.971Z,22.66
2022-09-23T09:09:07.404Z,24.97
2022-09-23T09:10:10.197Z,24.81
2022-09-23T09:12:31.106Z,29.47
2022-09-23T09:16:00.595Z,27.22
2022-09-23T09:18:22.652Z,22.57
2022-09-23T09:19:31.247Z,23.62
2022-09-23T09:20:34.541Z,23.34
2022-09-23T09:22:53.839Z,24.85
2022-09-23T09:23:57.000Z,30.20
2022-09-23T09:24:59.665Z,30.65
2022-09-23T09:26:02.427Z,30.42
2022-09-23T09:27:06.031Z,25.20
2022-09-23T09:28:09.093Z,24.19
2022-09-23T09:29:33.697Z,22.26
2022-09-23T09:30:17.090Z,27.66
2022-09-23T09:31:21.335Z,25.11
2022-09-23T09:32:24.287Z,27.14
2022-09-23T09:33:27.256Z,28.64
2022-09-23T09:34:30.449Z,24.16
2022-09-23T09:35:33.861Z,28.52
2022-09-23T09:36:39.367Z,26.26
2022-09-23T09:37:42.365Z,29.22
2022-09-23T09:38:45.830Z,26.97
2022-09-23T09:39:49.011Z,30.31
2022-09-23T09:40:52.428Z,31.55
2022-09-23T09:41:55.491Z,29.01
2022-09-23T09:43:04.156Z,30.03
2022-09-23T09:44:08.591Z,27.22
2022-09-23T09:45:19.683Z,29.55
2022-09-23T09:46:33.224Z,33.92
2022-09-23T09:47:36.336Z,33.60
2022-09-23T09:48:38.946Z,33.09
2022-09-23T09:49:41.822Z,34.10
2022-09-23T09:50:46.557Z,30.02
2022-09-23T09:51:49.531Z,28.03
2022-09-23T09:52:52.442Z,30.28
2022-09-23T09:53:55.509Z,30.99
2022-09-23T09:54:58.403Z,33.79
2022-09-23T09:56:06.277Z,32.02
2022-09-23T09:57:09.778Z,28.63
2022-09-23T09:58:12.847Z,32.67
2022-09-23T09:59:15.922Z,37.32
2022-09-23T10:00:18.871Z,30.85
2022-09-23T10:01:21.718Z,32.78
2022-09-23T10:02:25.107Z,35.73
2022-09-23T10:03:28.859Z,33.73
2022-09-23T10:04:31.580Z,35.52
2022-09-23T10:05:34.607Z,30.72
2022-09-23T10:06:37.591Z,29.36
2022-09-23T10:07:40.355Z,32.22
2022-09-23T10:08:49.589Z,37.40
2022-09-23T10:09:52.248Z,37.90
2022-09-23T10:10:54.714Z,37.66
2022-09-23T10:11:57.486Z,41.70
2022-09-23T10:13:00.357Z,34.05
2022-09-23T10:14:03.022Z,38.85
2022-09-23T10:15:06.134Z,44.27
2022-09-23T10:16:09.407Z,38.26
2022-09-23T10:17:12.378Z,40.50
2022-09-23T10:18:15.146Z,38.25
2022-09-23T10:19:18.027Z,38.42
2022-09-23T10:20:21.501Z,34.35
2022-09-23T10:21:27.983Z,31.70
2022-09-23T10:22:34.532Z,39.05
2022-09-23T10:23:37.400Z,41.70
2022-09-23T10:24:40.484Z,36.97
2022-09-23T10:25:43.703Z,43.66
2022-09-23T10:26:47.154Z,42.28
2022-09-23T10:27:49.928Z,38.15
2022-09-23T10:28:53.214Z,42.24
2022-09-23T10:29:56.701Z,39.85
2022-09-23T10:30:59.387Z,45.42
2022-09-23T10:32:02.132Z,42.79
2022-09-23T10:33:04.902Z,45.53
2022-09-23T10:34:07.906Z,43.12
2022-09-23T10:35:10.767Z,42.06
2022-09-23T10:36:13.748Z,45.17
2022-09-23T10:37:16.317Z,48.89
2022-09-23T10:38:19.083Z,46.53
2022-09-23T10:39:21.851Z,46.26
2022-09-23T10:40:25.182Z,44.10
2022-09-23T10:41:28.236Z,42.48
2022-09-23T10:42:30.900Z,40.44
2022-09-23T10:43:33.859Z,45.78
2022-09-23T10:44:36.526Z,50.90
2022-09-23T10:45:42.590Z,42.28
2022-09-23T10:46:43.921Z,35.79
2022-09-23T10:47:46.903Z,39.42
2022-09-23T10:48:49.676Z,45.08
2022-09-23T10:49:53.689Z,47.90
2022-09-23T10:50:58.215Z,38.94
2022-09-23T10:52:00.866Z,38.01
2022-09-23T10:53:03.523Z,35.97
2022-09-23T10:54:06.531Z,39.76
2022-09-23T10:55:09.587Z,46.24
2022-09-23T10:56:12.479Z,40.17
2022-09-23T10:57:15.243Z,35.62
2022-09-23T10:58:18.214Z,40.22
2022-09-23T10:59:20.984Z,40.88
2022-09-23T11:00:23.872Z,47.46
2022-09-23T11:01:26.902Z,36.47
2022-09-23T11:02:30.327Z,34.85
2022-09-23T11:03:33.334Z,38.48
2022-09-23T11:04:36.064Z,37.13
2022-09-23T11:05:38.543Z,45.92
2022-09-23T11:06:41.106Z,39.12
2022-09-23T11:07:44.202Z,39.25
2022-09-23T11:08:46.860Z,35.51
2022-09-23T11:09:49.638Z,43.54
2022-09-23T11:10:52.508Z,42.23
2022-09-23T11:12:01.840Z,40.18
2022-09-23T11:13:04.631Z,42.96
2022-09-23T11:14:07.564Z,43.71
2022-09-23T11:15:10.567Z,49.06
2022-09-23T11:16:13.302Z,42.95
2022-09-23T11:17:15.916Z,42.12
2022-09-23T11:18:18.585Z,42.69
2022-09-23T11:19:24.623Z,42.46
2022-09-23T11:20:27.402Z,40.53
2022-09-23T11:21:30.167Z,47.22
2022-09-23T11:22:32.945Z,43.19
2022-09-23T11:23:35.918Z,43.04
2022-09-23T11:24:38.715Z,46.02
2022-09-23T11:25:41.473Z,41.82
2022-09-23T11:26:44.031Z,45.16
2022-09-23T11:27:46.993Z,44.59
2022-09-23T11:28:50.006Z,48.38
2022-09-23T11:29:52.660Z,50.20
2022-09-23T11:30:55.578Z,46.99
2022-09-23T11:31:59.739Z,43.28
2022-09-23T11:34:06.528Z,44.71
2022-09-23T11:35:09.394Z,49.49
2022-09-23T11:36:12.059Z,43.48
2022-09-23T11:37:14.834Z,46.98
2022-09-23T11:38:17.497Z,54.62
2022-09-23T11:39:20.166Z,48.47
2022-09-23T11:40:23.096Z,54.52
2022-09-23T11:41:25.918Z,56.50
2022-09-23T11:42:28.799Z,53.54
2022-09-23T11:43:31.357Z,55.92
2022-09-23T11:44:34.155Z,51.72
2022-09-23T11:45:36.854Z,58.85
2022-09-23T11:46:39.577Z,48.65
2022-09-23T11:47:42.148Z,41.60
2022-09-23T11:48:44.914Z,47.67
2022-09-23T11:49:47.616Z,48.34
2022-09-23T11:50:50.276Z,49.30
2022-09-23T11:51:53.041Z,41.06
2022-09-23T11:52:55.698Z,44.63
2022-09-23T11:53:58.476Z,43.35
2022-09-23T11:55:04.617Z,42.22
2022-09-23T11:56:05.966Z,39.55
2022-09-23T11:57:08.830Z,40.33
2022-09-23T11:58:22.077Z,41.35
2022-09-23T11:59:16.325Z,42.94
2022-09-23T12:00:19.307Z,42.39
2022-09-23T12:01:33.803Z,38.26
2022-09-23T12:02:30.910Z,40.59
2022-09-23T12:03:42.345Z,41.35
2022-09-23T12:04:38.036Z,41.87
2022-09-23T12:05:40.858Z,40.43
2022-09-23T12:06:43.929Z,36.08
2022-09-23T12:07:46.797Z,38.26
2022-09-23T12:08:49.467Z,46.08
2022-09-23T12:09:58.416Z,39.45
2022-09-23T12:10:57.267Z,42.39
2022-09-23T12:12:00.037Z,43.00
2022-09-23T12:13:02.931Z,44.82
2022-09-23T12:14:05.983Z,39.91
2022-09-23T12:15:08.776Z,42.26
2022-09-23T12:16:11.496Z,44.63
2022-09-23T12:17:14.206Z,41.23
2022-09-23T12:18:22.216Z,51.21
2022-09-23T12:19:21.495Z,44.80
2022-09-23T12:20:24.175Z,45.73
2022-09-23T12:21:49.063Z,45.33
2022-09-23T12:22:31.402Z,46.45
2022-09-23T12:23:35.149Z,41.51
2022-09-23T12:24:38.114Z,51.00
2022-09-23T12:25:41.412Z,44.29
2022-09-23T12:26:43.976Z,43.97
2022-09-23T12:27:46.783Z,49.72
2022-09-23T12:28:49.627Z,51.31
2022-09-23T12:29:52.394Z,47.31
2022-09-23T12:30:55.536Z,40.92
2022-09-23T12:31:58.255Z,51.15
2022-09-23T12:33:01.437Z,44.95
2022-09-23T12:34:04.206Z,43.46
2022-09-23T12:35:07.305Z,47.01
2022-09-23T12:36:09.846Z,42.08
2022-09-23T12:37:12.526Z,47.09
2022-09-23T12:38:15.313Z,44.73
2022-09-23T12:39:18.270Z,46.78
2022-09-23T12:40:21.069Z,49.40
2022-09-23T12:41:23.728Z,50.26
2022-09-23T12:42:30.806Z,45.29
2022-09-23T12:43:31.051Z,46.97
2022-09-23T12:44:33.877Z,46.21
2022-09-23T12:45:36.728Z,43.66
2022-09-23T12:46:39.520Z,43.08
2022-09-23T12:47:42.605Z,38.39
2022-09-23T12:48:45.370Z,43.41
2022-09-23T12:49:48.041Z,43.49
2022-09-23T12:50:50.829Z,48.15
2022-09-23T12:51:53.586Z,48.03
2022-09-23T12:52:56.359Z,40.44
2022-09-23T12:53:59.230Z,39.97
2022-09-23T12:55:01.921Z,49.64
2022-09-23T12:56:04.474Z,44.04
2022-09-23T12:57:07.237Z,46.04
2022-09-23T12:58:09.809Z,41.06
2022-09-23T12:59:12.687Z,46.98
2022-09-23T13:00:15.159Z,40.86
2022-09-23T13:01:18.035Z,37.65
2022-09-23T13:02:20.798Z,37.54
2022-09-23T13:03:23.458Z,42.21
2022-09-23T13:04:26.341Z,43.02
2022-09-23T13:05:29.017Z,43.25
2022-09-23T13:06:31.685Z,40.10
2022-09-23T13:07:34.357Z,35.25
2022-09-23T13:08:37.221Z,43.27
2022-09-23T13:09:40.513Z,43.78
2022-09-23T13:10:43.387Z,40.13
2022-09-23T13:11:46.461Z,41.83
2022-09-23T13:12:49.132Z,49.16
2022-09-23T13:13:52.110Z,46.90
2022-09-23T13:14:55.198Z,45.72
2022-09-23T13:15:58.275Z,40.81
2022-09-23T13:17:01.202Z,41.05
2022-09-23T13:18:04.110Z,44.29
2022-09-23T13:19:06.801Z,39.50
2022-09-23T13:20:09.590Z,42.07
2022-09-23T13:21:12.243Z,43.20
2022-09-23T13:22:15.006Z,38.16
2022-09-23T13:23:17.682Z,36.72
2022-09-23T13:24:20.347Z,40.69
2022-09-23T13:25:24.344Z,40.12
2022-09-23T13:26:27.220Z,35.49
2022-09-23T13:27:29.893Z,37.76
2022-09-23T13:28:32.661Z,33.61
2022-09-23T13:29:35.238Z,33.36
2022-09-23T13:30:37.912Z,38.10
2022-09-23T13:31:40.642Z,40.48
2022-09-23T13:32:43.390Z,42.14
2022-09-23T13:33:46.122Z,41.53
2022-09-23T13:34:48.788Z,40.10
2022-09-23T13:35:51.868Z,37.68
2022-09-23T13:36:54.649Z,41.64
2022-09-23T13:37:57.528Z,37.76
2022-09-23T13:39:00.385Z,44.56
2022-09-23T13:40:03.279Z,45.38
2022-09-23T13:41:06.443Z,39.58
2022-09-23T13:42:10.120Z,39.95
2022-09-23T13:43:13.822Z,40.95
2022-09-23T13:44:17.451Z,42.26
2022-09-23T13:45:20.487Z,43.22
2022-09-23T13:46:23.661Z,43.02
2022-09-23T13:47:28.287Z,41.55
2022-09-23T13:48:31.875Z,37.97
2022-09-23T13:49:39.146Z,35.14
2022-09-23T13:50:42.328Z,37.61
2022-09-23T13:51:45.821Z,38.22
2022-09-23T13:52:48.900Z,38.47
2022-09-23T13:53:52.187Z,40.91
2022-09-23T13:54:56.194Z,38.14
2022-09-23T13:55:59.266Z,43.88
2022-09-23T13:57:02.242Z,40.37
2022-09-23T13:58:05.015Z,40.19
2022-09-23T13:59:07.790Z,43.93
2022-09-23T14:00:10.764Z,40.89
2022-09-23T14:01:13.894Z,44.07
2022-09-23T14:02:17.191Z,47.49
2022-09-23T14:03:19.821Z,41.83
2022-09-23T14:04:22.391Z,41.52
2022-09-23T14:05:25.061Z,40.29
2022-09-23T14:06:27.936Z,38.18
2022-09-23T14:07:31.122Z,44.68
2022-09-23T14:08:33.991Z,38.21
2022-09-23T14:09:36.973Z,39.73
2022-09-23T14:10:40.130Z,40.38
2022-09-23T14:11:43.106Z,41.08
2022-09-23T14:12:46.594Z,38.82
2022-09-23T14:13:49.989Z,36.13
2022-09-23T14:14:52.953Z,40.07
2022-09-23T14:15:55.769Z,37.20
2022-09-23T14:16:58.913Z,34.75
2022-09-23T14:18:02.511Z,37.09
2022-09-23T14:19:05.888Z,37.60
2022-09-23T14:20:08.729Z,33.23
2022-09-23T14:21:11.947Z,37.32
2022-09-23T14:22:14.823Z,38.43
2022-09-23T14:23:18.005Z,37.92
2022-09-23T14:24:20.976Z,40.57
2022-09-23T14:25:23.771Z,35.58
2022-09-23T14:26:26.834Z,37.75
2022-09-23T14:27:30.113Z,37.61
2022-09-23T14:28:33.605Z,37.94
2022-09-23T14:29:36.787Z,35.65
2022-09-23T14:30:39.972Z,40.25
2022-09-23T14:31:43.324Z,39.85
2022-09-23T14:32:46.430Z,42.76
2022-09-23T14:33:49.819Z,40.69
2022-09-23T14:34:52.910Z,42.06
2022-09-23T14:35:56.293Z,43.94
2022-09-23T14:36:59.584Z,40.40
2022-09-23T14:38:02.962Z,41.02
2022-09-23T14:39:06.354Z,37.73
2022-09-23T14:40:09.486Z,41.30
2022-09-23T14:41:12.717Z,40.94
2022-09-23T14:42:16.101Z,38.09
2022-09-23T14:43:19.182Z,41.32
2022-09-23T14:44:22.276Z,45.01
2022-09-23T14:45:25.833Z,42.41
2022-09-23T14:46:29.653Z,43.80
2022-09-23T14:47:32.828Z,38.99
2022-09-23T14:48:36.118Z,36.42
2022-09-23T14:49:39.499Z,37.78
2022-09-23T14:50:43.211Z,40.68
2022-09-23T14:51:46.578Z,36.64
2022-09-23T14:52:50.077Z,39.73
2022-09-23T14:53:53.558Z,37.05
2022-09-23T14:54:57.358Z,39.64
2022-09-23T14:56:00.951Z,36.89
2022-09-23T14:57:04.020Z,37.12
2022-09-23T14:58:07.003Z,38.57
2022-09-23T14:59:10.382Z,34.67
2022-09-23T15:00:13.262Z,36.79
2022-09-23T15:01:16.120Z,35.13
2022-09-23T15:02:19.229Z,43.32
2022-09-23T15:03:22.256Z,38.82
2022-09-23T15:04:25.596Z,38.08
2022-09-23T15:05:28.560Z,37.18
2022-09-23T15:06:31.439Z,39.08
2022-09-23T15:07:35.133Z,31.75
2022-09-23T15:08:38.108Z,34.30
2022-09-23T15:09:41.492Z,35.17
2022-09-23T15:10:44.266Z,38.19
2022-09-23T15:11:47.240Z,39.57
2022-09-23T15:12:50.218Z,37.52
2022-09-23T15:13:53.818Z,43.09
2022-09-23T15:14:57.091Z,46.29
2022-09-23T15:16:01.038Z,40.02
2022-09-23T15:17:04.068Z,45.44
2022-09-23T15:18:06.848Z,43.58
2022-09-23T15:19:10.141Z,42.92
2022-09-23T15:20:13.214Z,40.58
2022-09-23T15:21:16.604Z,41.36
2022-09-23T15:22:19.778Z,42.05
2022-09-23T15:23:27.661Z,43.98
2022-09-23T15:24:27.479Z,40.79
2022-09-23T15:25:30.853Z,38.39
2022-09-23T15:26:34.257Z,45.69
2022-09-23T15:27:37.950Z,45.94
2022-09-23T15:28:41.019Z,40.92
2022-09-23T15:29:44.401Z,43.38
2022-09-23T15:30:47.898Z,36.58
2022-09-23T15:31:51.888Z,38.91
2022-09-23T15:32:55.286Z,42.76
2022-09-23T15:33:57.983Z,41.80
2022-09-23T15:35:01.037Z,39.33
2022-09-23T15:36:04.111Z,42.12
2022-09-23T15:37:07.499Z,42.07
2022-09-23T15:38:09.988Z,42.26
2022-09-23T15:39:12.901Z,41.49
2022-09-23T15:40:15.585Z,37.06
2022-09-23T15:41:18.902Z,34.69
2022-09-23T15:42:22.295Z,44.92
2022-09-23T15:43:25.086Z,42.69
2022-09-23T15:44:28.134Z,43.57
2022-09-23T15:45:31.482Z,44.80
2022-09-23T15:46:34.850Z,41.85
2022-09-23T15:47:37.512Z,41.44
2022-09-23T15:48:40.180Z,39.25
2022-09-23T15:49:43.118Z,39.06
2022-09-23T15:50:46.199Z,39.57
2022-09-23T15:51:49.107Z,38.90
2022-09-23T15:52:55.435Z,38.18
2022-09-23T15:53:58.929Z,40.31
2022-09-23T15:55:01.831Z,42.30
2022-09-23T15:56:04.773Z,42.67
2022-09-23T15:57:07.694Z,37.91
2022-09-23T15:58:10.444Z,45.17
2022-09-23T15:59:13.425Z,43.34
2022-09-23T16:00:16.167Z,38.85
2022-09-23T16:01:19.322Z,45.86
2022-09-23T16:02:22.284Z,49.48
2022-09-23T16:03:25.303Z,47.90
2022-09-23T16:04:29.105Z,44.46
2022-09-23T16:05:32.490Z,42.23
2022-09-23T16:06:35.879Z,38.86
2022-09-23T16:07:39.257Z,38.76
2022-09-23T16:08:43.160Z,42.12
2022-09-23T16:09:46.447Z,41.04
2022-09-23T16:10:49.561Z,38.91
2022-09-23T16:11:52.608Z,43.47
2022-09-23T16:12:55.515Z,40.10
2022-09-23T16:13:58.862Z,41.98